sensor_id;sensor_type;location;lat;lon;timestamp;temperature;humidity
7694;DHT22;3889;48.162;11.510;2023-04-23T00:00:06;13.60;99.90
7694;DHT22;3889;48.162;11.510;2023-04-23T00:02:38;13.60;99.90
7694;DHT22;3889;48.162;11.510;2023-04-23T00:05:07;13.60;99.90
7694;DHT22;3889;48.162;11.510;2023-04-23T00:07:36;13.60;99.90
7694;DHT22;3889;48.162;11.510;2023-04-23T00:10:07;13.60;99.90
7694;DHT22;3889;48.162;11.510;2023-04-23T00:12:35;13.60;99.90
7694;DHT22;3889;48.162;11.510;2023-04-23T00:15:04;13.50;99.90
7694;DHT22;3889;48.162;11.510;2023-04-23T00:17:33;13.50;99.90
7694;DHT22;3889;48.162;11.510;2023-04-23T00:20:01;13.50;99.90
7694;DHT22;3889;48.162;11.510;2023-04-23T00:22:28;13.60;99.90
7694;DHT22;3889;48.162;11.510;2023-04-23T00:24:57;13.50;99.90
7694;DHT22;3889;48.162;11.510;2023-04-23T00:27:26;13.50;99.90
7694;DHT22;3889;48.162;11.510;2023-04-23T00:29:54;13.50;99.90
7694;DHT22;3889;48.162;11.510;2023-04-23T00:32:21;13.50;99.90
7694;DHT22;3889;48.162;11.510;2023-04-23T00:34:49;13.50;99.90
7694;DHT22;3889;48.162;11.510;2023-04-23T00:37:17;13.50;99.90
7694;DHT22;3889;48.162;11.510;2023-04-23T00:39:45;13.50;99.90
7694;DHT22;3889;48.162;11.510;2023-04-23T00:42:13;13.40;99.90
7694;DHT22;3889;48.162;11.510;2023-04-23T00:44:44;13.40;99.90
7694;DHT22;3889;48.162;11.510;2023-04-23T00:47:12;13.40;99.90
7694;DHT22;3889;48.162;11.510;2023-04-23T00:49:41;13.50;99.90
7694;DHT22;3889;48.162;11.510;2023-04-23T00:52:09;13.50;99.90
7694;DHT22;3889;48.162;11.510;2023-04-23T00:54:37;13.50;99.90
7694;DHT22;3889;48.162;11.510;2023-04-23T00:57:05;13.40;99.90
7694;DHT22;3889;48.162;11.510;2023-04-23T00:59:34;13.40;99.90
7694;DHT22;3889;48.162;11.510;2023-04-23T01:02:04;13.40;99.90
7694;DHT22;3889;48.162;11.510;2023-04-23T01:04:32;13.30;99.90
7694;DHT22;3889;48.162;11.510;2023-04-23T01:07:00;13.30;99.90
7694;DHT22;3889;48.162;11.510;2023-04-23T01:09:28;13.30;99.90
7694;DHT22;3889;48.162;11.510;2023-04-23T01:11:59;13.30;99.90
7694;DHT22;3889;48.162;11.510;2023-04-23T01:14:28;13.20;99.90
7694;DHT22;3889;48.162;11.510;2023-04-23T01:16:56;13.20;99.90
7694;DHT22;3889;48.162;11.510;2023-04-23T01:19:26;13.10;99.90
7694;DHT22;3889;48.162;11.510;2023-04-23T01:21:55;13.20;99.90
7694;DHT22;3889;48.162;11.510;2023-04-23T01:24:28;13.20;99.90
7694;DHT22;3889;48.162;11.510;2023-04-23T01:26:57;13.30;99.90
7694;DHT22;3889;48.162;11.510;2023-04-23T01:29:28;13.20;99.90
7694;DHT22;3889;48.162;11.510;2023-04-23T01:31:57;13.20;99.90
7694;DHT22;3889;48.162;11.510;2023-04-23T01:34:26;13.10;99.90
7694;DHT22;3889;48.162;11.510;2023-04-23T01:36:53;13.20;99.90
7694;DHT22;3889;48.162;11.510;2023-04-23T01:39:22;13.10;99.90
7694;DHT22;3889;48.162;11.510;2023-04-23T01:41:52;13.10;99.90
7694;DHT22;3889;48.162;11.510;2023-04-23T01:44:20;13.10;99.90
7694;DHT22;3889;48.162;11.510;2023-04-23T01:46:48;13.10;99.90
7694;DHT22;3889;48.162;11.510;2023-04-23T01:49:16;13.10;99.90
7694;DHT22;3889;48.162;11.510;2023-04-23T01:51:44;13.10;99.90
7694;DHT22;3889;48.162;11.510;2023-04-23T01:54:11;13.10;99.90
7694;DHT22;3889;48.162;11.510;2023-04-23T01:56:39;13.10;99.90
7694;DHT22;3889;48.162;11.510;2023-04-23T01:59:09;13.10;99.90
7694;DHT22;3889;48.162;11.510;2023-04-23T02:01:44;13.10;99.90
7694;DHT22;3889;48.162;11.510;2023-04-23T02:04:14;13.10;99.90
7694;DHT22;3889;48.162;11.510;2023-04-23T02:06:44;13.10;99.90
7694;DHT22;3889;48.162;11.510;2023-04-23T02:09:13;13.10;99.90
7694;DHT22;3889;48.162;11.510;2023-04-23T02:11:41;13.00;99.90
7694;DHT22;3889;48.162;11.510;2023-04-23T02:14:10;12.90;99.90
7694;DHT22;3889;48.162;11.510;2023-04-23T02:16:38;12.90;99.90
7694;DHT22;3889;48.162;11.510;2023-04-23T02:19:06;13.00;99.90
7694;DHT22;3889;48.162;11.510;2023-04-23T02:21:34;13.00;99.90
7694;DHT22;3889;48.162;11.510;2023-04-23T02:24:03;12.90;99.90
7694;DHT22;3889;48.162;11.510;2023-04-23T02:26:31;12.90;99.90
7694;DHT22;3889;48.162;11.510;2023-04-23T02:28:59;12.80;99.90
7694;DHT22;3889;48.162;11.510;2023-04-23T02:31:28;12.80;99.90
7694;DHT22;3889;48.162;11.510;2023-04-23T02:33:56;12.90;99.90
7694;DHT22;3889;48.162;11.510;2023-04-23T02:36:24;12.90;99.90
7694;DHT22;3889;48.162;11.510;2023-04-23T02:38:53;12.90;99.90
7694;DHT22;3889;48.162;11.510;2023-04-23T02:41:21;12.90;99.90
7694;DHT22;3889;48.162;11.510;2023-04-23T02:43:49;12.90;99.90
7694;DHT22;3889;48.162;11.510;2023-04-23T02:46:17;12.90;99.90
7694;DHT22;3889;48.162;11.510;2023-04-23T02:48:46;12.80;99.90
7694;DHT22;3889;48.162;11.510;2023-04-23T02:51:14;12.70;99.90
7694;DHT22;3889;48.162;11.510;2023-04-23T02:53:42;12.70;99.90
7694;DHT22;3889;48.162;11.510;2023-04-23T02:56:10;12.70;99.90
7694;DHT22;3889;48.162;11.510;2023-04-23T02:58:38;12.70;99.90
7694;DHT22;3889;48.162;11.510;2023-04-23T03:01:06;12.70;99.90
7694;DHT22;3889;48.162;11.510;2023-04-23T03:03:34;12.80;99.90
7694;DHT22;3889;48.162;11.510;2023-04-23T03:06:04;12.70;99.90
7694;DHT22;3889;48.162;11.510;2023-04-23T03:08:33;12.60;99.90
7694;DHT22;3889;48.162;11.510;2023-04-23T03:11:01;12.60;99.90
7694;DHT22;3889;48.162;11.510;2023-04-23T03:13:29;12.60;99.90
7694;DHT22;3889;48.162;11.510;2023-04-23T03:15:57;12.60;99.90
7694;DHT22;3889;48.162;11.510;2023-04-23T03:18:25;12.50;99.90
7694;DHT22;3889;48.162;11.510;2023-04-23T03:20:53;12.50;99.90
7694;DHT22;3889;48.162;11.510;2023-04-23T03:23:22;12.60;99.90
7694;DHT22;3889;48.162;11.510;2023-04-23T03:25:50;12.50;99.90
7694;DHT22;3889;48.162;11.510;2023-04-23T03:28:17;12.50;99.90
7694;DHT22;3889;48.162;11.510;2023-04-23T03:30:45;12.50;99.90
7694;DHT22;3889;48.162;11.510;2023-04-23T03:33:13;12.50;99.90
7694;DHT22;3889;48.162;11.510;2023-04-23T03:35:41;12.50;99.90
7694;DHT22;3889;48.162;11.510;2023-04-23T03:38:09;12.50;99.90
7694;DHT22;3889;48.162;11.510;2023-04-23T03:40:38;12.50;99.90
7694;DHT22;3889;48.162;11.510;2023-04-23T03:43:06;12.60;99.90
7694;DHT22;3889;48.162;11.510;2023-04-23T03:45:34;12.60;99.90
7694;DHT22;3889;48.162;11.510;2023-04-23T03:48:02;12.60;99.90
7694;DHT22;3889;48.162;11.510;2023-04-23T03:50:30;12.60;99.90
7694;DHT22;3889;48.162;11.510;2023-04-23T03:53:00;12.50;99.90
7694;DHT22;3889;48.162;11.510;2023-04-23T03:55:28;12.50;99.90
7694;DHT22;3889;48.162;11.510;2023-04-23T03:57:57;12.40;99.90
7694;DHT22;3889;48.162;11.510;2023-04-23T04:00:27;12.40;99.90
7694;DHT22;3889;48.162;11.510;2023-04-23T04:02:55;12.40;99.90
7694;DHT22;3889;48.162;11.510;2023-04-23T04:05:23;12.40;99.90
7694;DHT22;3889;48.162;11.510;2023-04-23T04:07:51;12.50;99.90
7694;DHT22;3889;48.162;11.510;2023-04-23T04:10:19;12.50;99.90
7694;DHT22;3889;48.162;11.510;2023-04-23T04:12:47;12.50;99.90
7694;DHT22;3889;48.162;11.510;2023-04-23T04:15:16;12.50;99.90
7694;DHT22;3889;48.162;11.510;2023-04-23T04:17:46;12.50;99.90
7694;DHT22;3889;48.162;11.510;2023-04-23T04:20:14;12.50;99.90
7694;DHT22;3889;48.162;11.510;2023-04-23T04:22:42;12.60;99.90
7694;DHT22;3889;48.162;11.510;2023-04-23T04:25:10;12.60;99.90
7694;DHT22;3889;48.162;11.510;2023-04-23T04:27:38;12.70;99.90
7694;DHT22;3889;48.162;11.510;2023-04-23T04:30:08;12.60;99.90
7694;DHT22;3889;48.162;11.510;2023-04-23T04:32:37;12.60;99.90
7694;DHT22;3889;48.162;11.510;2023-04-23T04:35:06;12.50;99.90
7694;DHT22;3889;48.162;11.510;2023-04-23T04:37:35;12.50;99.90
7694;DHT22;3889;48.162;11.510;2023-04-23T04:40:04;12.50;99.90
7694;DHT22;3889;48.162;11.510;2023-04-23T04:42:33;12.50;99.90
7694;DHT22;3889;48.162;11.510;2023-04-23T04:45:01;12.30;99.90
7694;DHT22;3889;48.162;11.510;2023-04-23T04:47:30;12.30;99.90
7694;DHT22;3889;48.162;11.510;2023-04-23T04:49:59;12.20;99.90
7694;DHT22;3889;48.162;11.510;2023-04-23T04:52:27;12.20;99.90
7694;DHT22;3889;48.162;11.510;2023-04-23T04:54:55;12.20;99.90
7694;DHT22;3889;48.162;11.510;2023-04-23T04:57:23;12.20;99.90
7694;DHT22;3889;48.162;11.510;2023-04-23T04:59:50;12.20;99.90
7694;DHT22;3889;48.162;11.510;2023-04-23T05:02:19;12.20;99.90
7694;DHT22;3889;48.162;11.510;2023-04-23T05:04:48;12.20;99.90
7694;DHT22;3889;48.162;11.510;2023-04-23T05:07:18;12.10;99.90
7694;DHT22;3889;48.162;11.510;2023-04-23T05:09:45;12.00;99.90
7694;DHT22;3889;48.162;11.510;2023-04-23T05:12:13;12.10;99.90
7694;DHT22;3889;48.162;11.510;2023-04-23T05:14:41;12.10;99.90
7694;DHT22;3889;48.162;11.510;2023-04-23T05:17:09;12.20;99.90
7694;DHT22;3889;48.162;11.510;2023-04-23T05:19:37;12.00;99.90
7694;DHT22;3889;48.162;11.510;2023-04-23T05:22:05;12.10;99.90
7694;DHT22;3889;48.162;11.510;2023-04-23T05:24:34;12.10;99.90
7694;DHT22;3889;48.162;11.510;2023-04-23T05:27:02;12.10;99.90
7694;DHT22;3889;48.162;11.510;2023-04-23T05:29:30;12.20;99.90
7694;DHT22;3889;48.162;11.510;2023-04-23T05:31:58;12.20;99.90
7694;DHT22;3889;48.162;11.510;2023-04-23T05:34:26;12.20;99.90
7694;DHT22;3889;48.162;11.510;2023-04-23T05:36:55;12.20;99.90
7694;DHT22;3889;48.162;11.510;2023-04-23T05:39:23;12.20;99.90
7694;DHT22;3889;48.162;11.510;2023-04-23T05:41:53;12.20;99.90
7694;DHT22;3889;48.162;11.510;2023-04-23T05:44:21;12.20;99.90
7694;DHT22;3889;48.162;11.510;2023-04-23T05:46:48;12.20;99.90
7694;DHT22;3889;48.162;11.510;2023-04-23T05:49:16;12.20;99.90
7694;DHT22;3889;48.162;11.510;2023-04-23T05:51:44;12.10;99.90
7694;DHT22;3889;48.162;11.510;2023-04-23T05:54:12;12.10;99.90
7694;DHT22;3889;48.162;11.510;2023-04-23T05:56:40;12.10;99.90
7694;DHT22;3889;48.162;11.510;2023-04-23T05:59:09;12.10;99.90
7694;DHT22;3889;48.162;11.510;2023-04-23T06:01:37;12.10;99.90
7694;DHT22;3889;48.162;11.510;2023-04-23T06:04:06;12.20;99.90
7694;DHT22;3889;48.162;11.510;2023-04-23T06:06:34;12.20;99.90
7694;DHT22;3889;48.162;11.510;2023-04-23T06:09:02;12.10;99.90
7694;DHT22;3889;48.162;11.510;2023-04-23T06:11:31;12.00;99.90
7694;DHT22;3889;48.162;11.510;2023-04-23T06:13:59;11.90;99.90
7694;DHT22;3889;48.162;11.510;2023-04-23T06:16:28;11.90;99.90
7694;DHT22;3889;48.162;11.510;2023-04-23T06:18:56;11.90;99.90
7694;DHT22;3889;48.162;11.510;2023-04-23T06:21:24;11.80;99.90
7694;DHT22;3889;48.162;11.510;2023-04-23T06:23:53;11.80;99.90
7694;DHT22;3889;48.162;11.510;2023-04-23T06:26:21;11.80;99.90
7694;DHT22;3889;48.162;11.510;2023-04-23T06:28:49;11.90;99.90
7694;DHT22;3889;48.162;11.510;2023-04-23T06:31:17;11.80;99.90
7694;DHT22;3889;48.162;11.510;2023-04-23T06:33:48;11.80;99.90
7694;DHT22;3889;48.162;11.510;2023-04-23T06:36:17;11.90;99.90
7694;DHT22;3889;48.162;11.510;2023-04-23T06:38:47;11.90;99.90
7694;DHT22;3889;48.162;11.510;2023-04-23T06:41:15;11.90;99.90
7694;DHT22;3889;48.162;11.510;2023-04-23T06:43:42;11.90;99.90
7694;DHT22;3889;48.162;11.510;2023-04-23T06:46:11;11.90;99.90
7694;DHT22;3889;48.162;11.510;2023-04-23T06:48:40;11.90;99.90
7694;DHT22;3889;48.162;11.510;2023-04-23T06:51:09;12.00;99.90
7694;DHT22;3889;48.162;11.510;2023-04-23T06:53:37;12.00;99.90
7694;DHT22;3889;48.162;11.510;2023-04-23T06:56:05;12.00;99.90
7694;DHT22;3889;48.162;11.510;2023-04-23T06:58:34;12.00;99.90
7694;DHT22;3889;48.162;11.510;2023-04-23T07:01:02;12.00;99.90
7694;DHT22;3889;48.162;11.510;2023-04-23T07:03:30;12.00;99.90
7694;DHT22;3889;48.162;11.510;2023-04-23T07:05:58;12.10;99.90
7694;DHT22;3889;48.162;11.510;2023-04-23T07:08:28;12.10;99.90
7694;DHT22;3889;48.162;11.510;2023-04-23T07:10:55;12.10;99.90
7694;DHT22;3889;48.162;11.510;2023-04-23T07:13:23;12.20;99.90
7694;DHT22;3889;48.162;11.510;2023-04-23T07:15:52;12.20;99.90
7694;DHT22;3889;48.162;11.510;2023-04-23T07:18:19;12.30;99.90
7694;DHT22;3889;48.162;11.510;2023-04-23T07:20:47;12.40;99.90
7694;DHT22;3889;48.162;11.510;2023-04-23T07:23:15;12.50;99.90
7694;DHT22;3889;48.162;11.510;2023-04-23T07:25:44;12.50;99.90
7694;DHT22;3889;48.162;11.510;2023-04-23T07:28:12;12.40;99.90
7694;DHT22;3889;48.162;11.510;2023-04-23T07:30:40;12.50;99.90
7694;DHT22;3889;48.162;11.510;2023-04-23T07:33:08;12.50;99.90
7694;DHT22;3889;48.162;11.510;2023-04-23T07:35:36;12.50;99.90
7694;DHT22;3889;48.162;11.510;2023-04-23T07:38:04;12.60;99.90
7694;DHT22;3889;48.162;11.510;2023-04-23T07:40:32;12.60;99.90
7694;DHT22;3889;48.162;11.510;2023-04-23T07:43:01;12.60;99.90
7694;DHT22;3889;48.162;11.510;2023-04-23T07:45:29;12.50;99.90
7694;DHT22;3889;48.162;11.510;2023-04-23T07:47:57;12.50;99.90
7694;DHT22;3889;48.162;11.510;2023-04-23T07:50:25;12.50;99.90
7694;DHT22;3889;48.162;11.510;2023-04-23T07:52:53;12.50;99.90
7694;DHT22;3889;48.162;11.510;2023-04-23T07:55:20;12.40;99.90
7694;DHT22;3889;48.162;11.510;2023-04-23T07:57:48;12.40;99.90
7694;DHT22;3889;48.162;11.510;2023-04-23T08:00:18;12.40;99.90
7694;DHT22;3889;48.162;11.510;2023-04-23T08:02:46;12.40;99.90
7694;DHT22;3889;48.162;11.510;2023-04-23T08:05:14;12.40;99.90
7694;DHT22;3889;48.162;11.510;2023-04-23T08:07:42;12.40;99.90
7694;DHT22;3889;48.162;11.510;2023-04-23T08:10:10;12.40;99.90
7694;DHT22;3889;48.162;11.510;2023-04-23T08:12:38;12.40;99.90
7694;DHT22;3889;48.162;11.510;2023-04-23T08:15:07;12.50;99.90
7694;DHT22;3889;48.162;11.510;2023-04-23T08:17:36;12.50;99.90
7694;DHT22;3889;48.162;11.510;2023-04-23T08:20:05;12.50;99.90
7694;DHT22;3889;48.162;11.510;2023-04-23T08:22:33;12.50;99.90
7694;DHT22;3889;48.162;11.510;2023-04-23T08:25:01;12.40;99.90
7694;DHT22;3889;48.162;11.510;2023-04-23T08:27:30;12.40;99.90
7694;DHT22;3889;48.162;11.510;2023-04-23T08:29:58;12.60;99.90
7694;DHT22;3889;48.162;11.510;2023-04-23T08:32:26;12.70;99.90
7694;DHT22;3889;48.162;11.510;2023-04-23T08:34:55;12.90;99.90
7694;DHT22;3889;48.162;11.510;2023-04-23T08:37:24;13.10;99.90
7694;DHT22;3889;48.162;11.510;2023-04-23T08:39:57;13.50;99.90
7694;DHT22;3889;48.162;11.510;2023-04-23T08:42:32;13.80;99.90
7694;DHT22;3889;48.162;11.510;2023-04-23T08:45:02;14.00;99.90
7694;DHT22;3889;48.162;11.510;2023-04-23T08:47:31;14.10;99.90
7694;DHT22;3889;48.162;11.510;2023-04-23T08:50:03;14.40;99.90
7694;DHT22;3889;48.162;11.510;2023-04-23T08:52:32;14.20;99.90
7694;DHT22;3889;48.162;11.510;2023-04-23T08:55:03;14.20;99.90
7694;DHT22;3889;48.162;11.510;2023-04-23T08:57:37;14.40;99.90
7694;DHT22;3889;48.162;11.510;2023-04-23T09:00:07;14.60;99.90
7694;DHT22;3889;48.162;11.510;2023-04-23T09:02:36;14.60;99.90
7694;DHT22;3889;48.162;11.510;2023-04-23T09:05:08;14.60;99.90
7694;DHT22;3889;48.162;11.510;2023-04-23T09:07:36;14.70;99.90
7694;DHT22;3889;48.162;11.510;2023-04-23T09:10:06;15.00;99.90
7694;DHT22;3889;48.162;11.510;2023-04-23T09:12:35;15.10;99.90
7694;DHT22;3889;48.162;11.510;2023-04-23T09:15:04;15.20;99.90
7694;DHT22;3889;48.162;11.510;2023-04-23T09:17:40;15.20;99.90
7694;DHT22;3889;48.162;11.510;2023-04-23T09:20:11;15.30;99.90
7694;DHT22;3889;48.162;11.510;2023-04-23T09:22:40;15.20;99.90
7694;DHT22;3889;48.162;11.510;2023-04-23T09:25:13;15.30;99.90
7694;DHT22;3889;48.162;11.510;2023-04-23T09:27:41;15.30;99.90
7694;DHT22;3889;48.162;11.510;2023-04-23T09:30:10;15.40;99.90
7694;DHT22;3889;48.162;11.510;2023-04-23T09:32:39;15.50;99.90
7694;DHT22;3889;48.162;11.510;2023-04-23T09:35:11;15.60;99.90
7694;DHT22;3889;48.162;11.510;2023-04-23T09:37:40;15.60;99.90
7694;DHT22;3889;48.162;11.510;2023-04-23T09:40:12;15.30;99.90
7694;DHT22;3889;48.162;11.510;2023-04-23T09:42:46;15.00;99.90
7694;DHT22;3889;48.162;11.510;2023-04-23T09:45:15;15.20;99.90
7694;DHT22;3889;48.162;11.510;2023-04-23T09:47:49;15.30;99.90
7694;DHT22;3889;48.162;11.510;2023-04-23T09:50:31;15.40;99.90
7694;DHT22;3889;48.162;11.510;2023-04-23T09:53:00;15.50;99.90
7694;DHT22;3889;48.162;11.510;2023-04-23T09:55:29;15.70;99.90
7694;DHT22;3889;48.162;11.510;2023-04-23T09:58:01;15.80;99.90
7694;DHT22;3889;48.162;11.510;2023-04-23T10:00:32;15.80;99.90
7694;DHT22;3889;48.162;11.510;2023-04-23T10:03:01;15.80;99.90
7694;DHT22;3889;48.162;11.510;2023-04-23T10:05:32;15.90;99.90
7694;DHT22;3889;48.162;11.510;2023-04-23T10:08:25;15.80;99.90
7694;DHT22;3889;48.162;11.510;2023-04-23T10:10:55;15.70;99.90
7694;DHT22;3889;48.162;11.510;2023-04-23T10:13:35;15.70;99.90
7694;DHT22;3889;48.162;11.510;2023-04-23T10:16:04;15.90;99.90
7694;DHT22;3889;48.162;11.510;2023-04-23T10:18:50;16.00;99.90
7694;DHT22;3889;48.162;11.510;2023-04-23T10:23:52;16.10;99.90
7694;DHT22;3889;48.162;11.510;2023-04-23T10:26:22;16.20;99.90
7694;DHT22;3889;48.162;11.510;2023-04-23T10:28:53;16.40;99.90
7694;DHT22;3889;48.162;11.510;2023-04-23T10:31:21;16.40;99.90
7694;DHT22;3889;48.162;11.510;2023-04-23T10:33:50;16.60;99.90
7694;DHT22;3889;48.162;11.510;2023-04-23T10:36:26;16.50;99.90
7694;DHT22;3889;48.162;11.510;2023-04-23T10:38:54;16.50;99.90
7694;DHT22;3889;48.162;11.510;2023-04-23T10:41:32;16.50;99.90
7694;DHT22;3889;48.162;11.510;2023-04-23T10:44:00;16.60;99.90
7694;DHT22;3889;48.162;11.510;2023-04-23T10:46:29;16.60;99.90
7694;DHT22;3889;48.162;11.510;2023-04-23T10:49:07;16.80;99.90
7694;DHT22;3889;48.162;11.510;2023-04-23T10:51:41;16.90;99.90
7694;DHT22;3889;48.162;11.510;2023-04-23T10:54:30;17.30;99.90
7694;DHT22;3889;48.162;11.510;2023-04-23T10:57:00;17.50;99.90
7694;DHT22;3889;48.162;11.510;2023-04-23T10:59:29;17.50;99.90
7694;DHT22;3889;48.162;11.510;2023-04-23T11:02:04;17.40;99.90
7694;DHT22;3889;48.162;11.510;2023-04-23T11:04:34;17.30;99.90
7694;DHT22;3889;48.162;11.510;2023-04-23T11:07:07;17.60;99.90
7694;DHT22;3889;48.162;11.510;2023-04-23T11:09:37;17.50;99.90
7694;DHT22;3889;48.162;11.510;2023-04-23T11:12:07;17.60;99.90
7694;DHT22;3889;48.162;11.510;2023-04-23T11:14:40;17.70;99.90
7694;DHT22;3889;48.162;11.510;2023-04-23T11:17:10;17.90;99.90
7694;DHT22;3889;48.162;11.510;2023-04-23T11:19:39;17.80;99.90
7694;DHT22;3889;48.162;11.510;2023-04-23T11:22:14;18.30;99.90
7694;DHT22;3889;48.162;11.510;2023-04-23T11:24:47;18.40;99.90
7694;DHT22;3889;48.162;11.510;2023-04-23T11:27:17;18.30;99.90
7694;DHT22;3889;48.162;11.510;2023-04-23T11:29:46;18.20;99.90
7694;DHT22;3889;48.162;11.510;2023-04-23T11:32:15;18.20;99.90
7694;DHT22;3889;48.162;11.510;2023-04-23T11:34:45;18.00;99.90
7694;DHT22;3889;48.162;11.510;2023-04-23T11:37:15;18.20;99.90
7694;DHT22;3889;48.162;11.510;2023-04-23T11:39:45;18.10;99.90
7694;DHT22;3889;48.162;11.510;2023-04-23T11:42:13;18.20;99.90
7694;DHT22;3889;48.162;11.510;2023-04-23T11:44:43;18.20;99.90
7694;DHT22;3889;48.162;11.510;2023-04-23T11:47:12;18.10;99.90
7694;DHT22;3889;48.162;11.510;2023-04-23T11:49:42;18.10;99.90
7694;DHT22;3889;48.162;11.510;2023-04-23T11:52:11;18.10;99.90
7694;DHT22;3889;48.162;11.510;2023-04-23T11:54:42;17.80;99.90
7694;DHT22;3889;48.162;11.510;2023-04-23T11:57:10;18.20;99.90
7694;DHT22;3889;48.162;11.510;2023-04-23T11:59:40;18.70;99.90
7694;DHT22;3889;48.162;11.510;2023-04-23T12:02:08;18.90;99.90
7694;DHT22;3889;48.162;11.510;2023-04-23T12:04:36;18.80;99.90
7694;DHT22;3889;48.162;11.510;2023-04-23T12:07:07;18.80;99.90
7694;DHT22;3889;48.162;11.510;2023-04-23T12:09:57;19.00;99.90
7694;DHT22;3889;48.162;11.510;2023-04-23T12:12:32;18.90;99.90
7694;DHT22;3889;48.162;11.510;2023-04-23T12:15:03;18.60;99.90
7694;DHT22;3889;48.162;11.510;2023-04-23T12:17:31;18.40;99.90
7694;DHT22;3889;48.162;11.510;2023-04-23T12:20:03;18.50;99.90
7694;DHT22;3889;48.162;11.510;2023-04-23T12:22:32;18.50;99.90
7694;DHT22;3889;48.162;11.510;2023-04-23T12:25:04;18.50;99.90
7694;DHT22;3889;48.162;11.510;2023-04-23T12:27:38;18.40;99.90
7694;DHT22;3889;48.162;11.510;2023-04-23T12:30:07;18.40;99.90
7694;DHT22;3889;48.162;11.510;2023-04-23T12:32:37;18.10;99.90
7694;DHT22;3889;48.162;11.510;2023-04-23T12:35:05;18.00;99.90
7694;DHT22;3889;48.162;11.510;2023-04-23T12:37:36;18.00;99.90
7694;DHT22;3889;48.162;11.510;2023-04-23T12:40:06;17.80;99.90
7694;DHT22;3889;48.162;11.510;2023-04-23T12:42:35;18.20;99.90
7694;DHT22;3889;48.162;11.510;2023-04-23T12:45:08;18.40;99.90
7694;DHT22;3889;48.162;11.510;2023-04-23T12:47:36;18.70;99.90
7694;DHT22;3889;48.162;11.510;2023-04-23T12:50:05;18.90;99.90
7694;DHT22;3889;48.162;11.510;2023-04-23T12:52:33;18.70;99.90
7694;DHT22;3889;48.162;11.510;2023-04-23T12:55:01;18.50;99.90
7694;DHT22;3889;48.162;11.510;2023-04-23T12:57:32;18.40;99.90
7694;DHT22;3889;48.162;11.510;2023-04-23T12:59:59;18.60;99.90
7694;DHT22;3889;48.162;11.510;2023-04-23T13:02:28;18.90;99.90
7694;DHT22;3889;48.162;11.510;2023-04-23T13:04:56;19.00;99.90
7694;DHT22;3889;48.162;11.510;2023-04-23T13:07:29;18.90;99.90
7694;DHT22;3889;48.162;11.510;2023-04-23T13:09:56;18.60;99.90
7694;DHT22;3889;48.162;11.510;2023-04-23T13:12:25;18.60;99.90
7694;DHT22;3889;48.162;11.510;2023-04-23T13:14:54;18.60;99.90
7694;DHT22;3889;48.162;11.510;2023-04-23T13:17:23;18.60;99.90
7694;DHT22;3889;48.162;11.510;2023-04-23T13:19:52;18.30;99.90
7694;DHT22;3889;48.162;11.510;2023-04-23T13:22:20;18.20;99.90
7694;DHT22;3889;48.162;11.510;2023-04-23T13:24:48;18.30;99.90
7694;DHT22;3889;48.162;11.510;2023-04-23T13:27:16;18.40;99.90
7694;DHT22;3889;48.162;11.510;2023-04-23T13:29:44;18.20;99.90
7694;DHT22;3889;48.162;11.510;2023-04-23T13:32:13;18.30;99.90
7694;DHT22;3889;48.162;11.510;2023-04-23T13:34:41;18.10;99.90
7694;DHT22;3889;48.162;11.510;2023-04-23T13:37:09;18.20;99.90
7694;DHT22;3889;48.162;11.510;2023-04-23T13:39:37;18.20;99.90
7694;DHT22;3889;48.162;11.510;2023-04-23T13:42:08;18.40;99.90
7694;DHT22;3889;48.162;11.510;2023-04-23T13:44:37;18.40;99.90
7694;DHT22;3889;48.162;11.510;2023-04-23T13:47:05;18.60;99.90
7694;DHT22;3889;48.162;11.510;2023-04-23T13:49:34;18.40;99.90
7694;DHT22;3889;48.162;11.510;2023-04-23T13:52:02;18.50;99.90
7694;DHT22;3889;48.162;11.510;2023-04-23T13:54:32;18.50;99.90
7694;DHT22;3889;48.162;11.510;2023-04-23T13:57:01;18.40;99.90
7694;DHT22;3889;48.162;11.510;2023-04-23T13:59:29;18.40;99.90
7694;DHT22;3889;48.162;11.510;2023-04-23T14:01:56;18.30;99.90
7694;DHT22;3889;48.162;11.510;2023-04-23T14:04:24;18.40;99.90
7694;DHT22;3889;48.162;11.510;2023-04-23T14:06:54;18.30;99.90
7694;DHT22;3889;48.162;11.510;2023-04-23T14:09:21;18.50;99.90
7694;DHT22;3889;48.162;11.510;2023-04-23T14:11:49;18.80;99.90
7694;DHT22;3889;48.162;11.510;2023-04-23T14:14:17;18.80;99.90
7694;DHT22;3889;48.162;11.510;2023-04-23T14:16:45;18.80;99.90
7694;DHT22;3889;48.162;11.510;2023-04-23T14:19:13;18.70;99.90
7694;DHT22;3889;48.162;11.510;2023-04-23T14:21:42;18.60;99.90
7694;DHT22;3889;48.162;11.510;2023-04-23T14:24:21;18.60;99.90
7694;DHT22;3889;48.162;11.510;2023-04-23T14:26:50;18.60;99.90
7694;DHT22;3889;48.162;11.510;2023-04-23T14:29:23;18.60;99.90
7694;DHT22;3889;48.162;11.510;2023-04-23T14:31:59;18.60;99.90
7694;DHT22;3889;48.162;11.510;2023-04-23T14:34:27;18.30;99.90
7694;DHT22;3889;48.162;11.510;2023-04-23T14:36:55;18.30;99.90
7694;DHT22;3889;48.162;11.510;2023-04-23T14:39:24;18.00;99.90
7694;DHT22;3889;48.162;11.510;2023-04-23T14:41:52;17.80;99.90
7694;DHT22;3889;48.162;11.510;2023-04-23T14:44:20;17.80;99.90
7694;DHT22;3889;48.162;11.510;2023-04-23T14:46:49;17.80;99.90
7694;DHT22;3889;48.162;11.510;2023-04-23T14:49:17;18.00;99.90
7694;DHT22;3889;48.162;11.510;2023-04-23T14:51:46;18.20;99.90
7694;DHT22;3889;48.162;11.510;2023-04-23T14:54:15;18.30;99.90
7694;DHT22;3889;48.162;11.510;2023-04-23T14:56:44;18.30;99.90
7694;DHT22;3889;48.162;11.510;2023-04-23T14:59:12;18.30;99.90
7694;DHT22;3889;48.162;11.510;2023-04-23T15:01:41;18.30;99.90
7694;DHT22;3889;48.162;11.510;2023-04-23T15:04:10;18.40;99.90
7694;DHT22;3889;48.162;11.510;2023-04-23T15:06:38;18.30;99.90
7694;DHT22;3889;48.162;11.510;2023-04-23T15:09:07;18.30;99.90
7694;DHT22;3889;48.162;11.510;2023-04-23T15:11:34;18.30;99.90
7694;DHT22;3889;48.162;11.510;2023-04-23T15:14:07;18.20;99.90
7694;DHT22;3889;48.162;11.510;2023-04-23T15:16:44;18.10;99.90
7694;DHT22;3889;48.162;11.510;2023-04-23T15:19:15;18.10;99.90
7694;DHT22;3889;48.162;11.510;2023-04-23T15:21:44;18.10;99.90
7694;DHT22;3889;48.162;11.510;2023-04-23T15:24:13;18.20;99.90
7694;DHT22;3889;48.162;11.510;2023-04-23T15:26:41;18.30;99.90
7694;DHT22;3889;48.162;11.510;2023-04-23T15:29:13;18.30;99.90
7694;DHT22;3889;48.162;11.510;2023-04-23T15:31:41;18.30;99.90
7694;DHT22;3889;48.162;11.510;2023-04-23T15:34:09;18.50;99.90
7694;DHT22;3889;48.162;11.510;2023-04-23T15:36:37;18.60;99.90
7694;DHT22;3889;48.162;11.510;2023-04-23T15:39:06;18.50;99.90
7694;DHT22;3889;48.162;11.510;2023-04-23T15:41:34;18.60;99.90
7694;DHT22;3889;48.162;11.510;2023-04-23T15:44:08;18.60;99.90
7694;DHT22;3889;48.162;11.510;2023-04-23T15:46:38;18.60;99.90
7694;DHT22;3889;48.162;11.510;2023-04-23T15:49:06;18.30;99.90
7694;DHT22;3889;48.162;11.510;2023-04-23T15:51:34;18.00;99.90
7694;DHT22;3889;48.162;11.510;2023-04-23T15:54:03;18.10;99.90
7694;DHT22;3889;48.162;11.510;2023-04-23T15:56:33;18.30;99.90
7694;DHT22;3889;48.162;11.510;2023-04-23T15:59:02;18.70;99.90